createdAt,value
2022-08-22T00:01:11.368Z,10.40
2022-08-22T00:02:57.843Z,8.20
2022-08-22T00:03:00.667Z,8.30
2022-08-22T00:03:00.669Z,9.90
2022-08-22T00:03:02.383Z,12.67
2022-08-22T00:03:27.018Z,10.33
2022-08-22T00:05:34.280Z,10.33
2022-08-22T00:09:58.245Z,10.20
2022-08-22T00:12:17.495Z,9.97
2022-08-22T00:14:24.847Z,10.40
2022-08-22T00:16:34.307Z,9.70
2022-08-22T00:21:01.649Z,10.10
2022-08-22T00:23:08.952Z,10.80
2022-08-22T00:25:26.272Z,9.53
2022-08-22T00:27:34.303Z,11.37
2022-08-22T00:29:42.060Z,9.93
2022-08-22T00:31:51.422Z,10.50
2022-08-22T00:33:59.816Z,10.67
2022-08-22T00:36:18.792Z,10.50
2022-08-22T00:38:26.896Z,10.10
2022-08-22T00:43:13.660Z,9.73
2022-08-22T00:45:52.672Z,10.10
2022-08-22T00:48:10.700Z,10.23
2022-08-22T00:50:30.184Z,9.80
2022-08-22T00:53:00.096Z,10.93
2022-08-22T00:55:34.859Z,10.50
2022-08-22T01:00:14.197Z,10.90
2022-08-22T01:02:27.788Z,10.40
2022-08-22T01:07:05.997Z,14.40
2022-08-22T01:11:55.014Z,12.27
2022-08-22T01:14:07.654Z,10.90
2022-08-22T01:18:47.564Z,6.17
2022-08-22T01:21:20.706Z,5.97
2022-08-22T01:26:38.847Z,6.30
2022-08-22T01:28:58.046Z,6.00
2022-08-22T01:31:30.729Z,5.93
2022-08-22T01:34:12.839Z,6.27
2022-08-22T01:36:59.456Z,6.43
2022-08-22T01:39:16.783Z,6.40
2022-08-22T01:44:15.563Z,6.07
2022-08-22T01:46:29.248Z,6.40
2022-08-22T01:48:37.139Z,6.20
2022-08-22T01:53:03.405Z,6.53
2022-08-22T01:55:12.152Z,6.20
2022-08-22T01:57:17.074Z,6.40
2022-08-22T01:59:26.019Z,6.40
2022-08-22T02:01:42.107Z,6.60
2022-08-22T02:06:15.856Z,6.60
2022-08-22T02:08:24.634Z,7.03
2022-08-22T02:13:03.913Z,6.60
2022-08-22T02:15:15.475Z,9.10
2022-08-22T02:17:22.721Z,8.70
2022-08-22T02:19:37.426Z,7.73
2022-08-22T02:24:05.467Z,7.87
2022-08-22T02:26:12.431Z,7.40
2022-08-22T02:28:57.076Z,7.63
2022-08-22T02:33:14.685Z,7.60
2022-08-22T02:37:39.821Z,8.53
2022-08-22T02:39:48.029Z,7.33
2022-08-22T02:44:18.840Z,7.60
2022-08-22T02:46:27.864Z,7.40
2022-08-22T02:48:36.600Z,7.27
2022-08-22T02:51:01.091Z,7.50
2022-08-22T02:53:10.910Z,7.30
2022-08-22T02:55:19.428Z,10.47
2022-08-22T02:57:27.204Z,8.17
2022-08-22T03:01:50.692Z,7.67
2022-08-22T03:04:15.133Z,7.83
2022-08-22T03:06:36.612Z,9.43
2022-08-22T03:08:47.494Z,8.97
2022-08-22T03:10:56.775Z,7.37
2022-08-22T03:13:04.934Z,10.67
2022-08-22T03:15:12.583Z,9.50
2022-08-22T03:17:19.790Z,8.70
2022-08-22T03:19:27.385Z,8.80
2022-08-22T03:21:34.814Z,8.23
2022-08-22T03:23:41.964Z,8.10
2022-08-22T03:28:11.816Z,10.03
2022-08-22T03:30:20.259Z,9.73
2022-08-22T03:32:27.172Z,9.40
2022-08-22T03:34:30.688Z,10.23
2022-08-22T03:36:36.933Z,8.63
2022-08-22T03:41:49.671Z,8.63
2022-08-22T03:46:46.672Z,9.00
2022-08-22T03:49:18.810Z,7.40
2022-08-22T03:51:33.831Z,8.20
2022-08-22T03:54:07.727Z,8.17
2022-08-22T03:56:24.680Z,7.33
2022-08-22T03:58:42.871Z,7.70
2022-08-22T04:01:26.188Z,10.27
2022-08-22T04:04:22.735Z,10.40
2022-08-22T04:09:43.585Z,8.90
2022-08-22T04:12:15.303Z,9.20
2022-08-22T04:15:07.394Z,8.77
2022-08-22T04:20:39.928Z,10.23
2022-08-22T04:25:34.606Z,7.53
2022-08-22T04:27:42.085Z,9.00
2022-08-22T04:29:49.529Z,8.10
2022-08-22T04:34:13.548Z,9.77
2022-08-22T04:36:21.848Z,11.30
2022-08-22T04:38:29.696Z,10.33
2022-08-22T04:40:37.240Z,10.00
2022-08-22T04:42:44.736Z,8.60
2022-08-22T04:47:14.549Z,9.30
2022-08-22T04:49:22.015Z,8.73
2022-08-22T04:51:31.577Z,8.00
2022-08-22T04:53:51.551Z,10.10
2022-08-22T04:56:07.284Z,12.17
2022-08-22T04:58:16.562Z,11.33
2022-08-22T05:00:20.739Z,12.10
2022-08-22T05:02:27.472Z,9.80
2022-08-22T05:04:34.671Z,10.73
2022-08-22T05:06:41.283Z,11.87
2022-08-22T05:08:48.448Z,12.03
2022-08-22T05:10:54.701Z,10.60
2022-08-22T05:15:23.487Z,11.27
2022-08-22T05:17:29.723Z,15.90
2022-08-22T05:19:36.852Z,16.60
2022-08-22T05:21:45.539Z,15.97
2022-08-22T05:26:14.743Z,14.27
2022-08-22T05:28:23.620Z,17.03
2022-08-22T05:32:55.002Z,14.83
2022-08-22T05:37:22.484Z,14.60
2022-08-22T05:39:29.324Z,17.13
2022-08-22T05:41:36.716Z,17.43
2022-08-22T05:43:43.004Z,14.90
2022-08-22T05:45:48.441Z,18.10
2022-08-22T05:47:55.200Z,15.80
2022-08-22T05:52:19.780Z,15.17
2022-08-22T05:54:33.819Z,14.00
2022-08-22T05:56:38.128Z,10.47
2022-08-22T05:58:50.188Z,13.00
2022-08-22T06:03:17.692Z,16.60
2022-08-22T06:05:25.564Z,10.27
2022-08-22T06:07:32.807Z,11.57
2022-08-22T06:09:41.834Z,10.90
2022-08-22T06:11:51.979Z,10.63
2022-08-22T06:13:58.153Z,11.67
2022-08-22T06:16:09.374Z,11.33
2022-08-22T06:18:16.235Z,13.90
2022-08-22T06:20:23.172Z,12.47
2022-08-22T06:22:29.610Z,10.63
2022-08-22T06:24:36.361Z,12.73
2022-08-22T06:26:47.122Z,11.90
2022-08-22T06:28:55.208Z,10.10
2022-08-22T06:30:59.296Z,11.50
2022-08-22T06:33:06.564Z,12.77
2022-08-22T06:37:33.200Z,9.50
2022-08-22T06:39:40.472Z,9.97
2022-08-22T06:41:49.068Z,11.57
2022-08-22T06:43:53.472Z,13.13
2022-08-22T06:45:57.318Z,10.50
2022-08-22T06:48:12.745Z,10.53
2022-08-22T06:50:20.673Z,11.03
2022-08-22T06:52:27.199Z,10.20
2022-08-22T06:54:35.867Z,11.73
2022-08-22T06:56:42.246Z,11.27
2022-08-22T06:58:48.752Z,12.13
2022-08-22T07:01:05.701Z,9.83
2022-08-22T07:03:06.637Z,15.07
2022-08-22T07:05:16.313Z,13.63
2022-08-22T07:07:22.335Z,10.60
2022-08-22T07:11:44.296Z,12.37
2022-08-22T07:13:51.934Z,10.47
2022-08-22T07:15:59.196Z,12.00
2022-08-22T07:18:05.576Z,12.93
2022-08-22T07:20:14.963Z,11.00
2022-08-22T07:24:40.213Z,11.60
2022-08-22T07:26:47.904Z,12.00
2022-08-22T07:28:58.620Z,12.97
2022-08-22T07:31:03.862Z,16.57
2022-08-22T07:33:26.874Z,19.37
2022-08-22T07:35:21.454Z,13.93
2022-08-22T07:37:28.800Z,10.13
2022-08-22T07:39:36.202Z,8.40
2022-08-22T07:44:06.307Z,11.80
2022-08-22T07:48:48.499Z,11.37
2022-08-22T07:53:07.196Z,9.07
2022-08-22T07:55:15.193Z,11.53
2022-08-22T07:57:23.419Z,9.17
2022-08-22T07:59:29.480Z,9.43
2022-08-22T08:01:35.020Z,10.00
2022-08-22T08:03:39.768Z,10.57
2022-08-22T08:05:45.800Z,9.30
2022-08-22T08:07:51.363Z,11.40
2022-08-22T08:09:59.003Z,10.77
2022-08-22T08:12:05.254Z,10.20
2022-08-22T08:14:13.643Z,10.03
2022-08-22T08:16:19.934Z,9.60
2022-08-22T08:18:26.247Z,8.93
2022-08-22T08:20:31.975Z,10.60
2022-08-22T08:22:37.505Z,10.87
2022-08-22T08:24:45.093Z,13.67
2022-08-22T08:27:10.720Z,10.03
2022-08-22T08:29:18.197Z,16.20
2022-08-22T08:31:27.798Z,12.90
2022-08-22T08:33:33.347Z,12.40
2022-08-22T08:35:42.382Z,10.63
2022-08-22T08:40:09.270Z,9.63
2022-08-22T08:42:24.783Z,10.30
2022-08-22T08:49:58.224Z,9.57
2022-08-22T08:52:14.180Z,10.73
2022-08-22T08:54:28.906Z,10.30
2022-08-22T08:56:38.063Z,9.20
2022-08-22T08:58:47.413Z,8.07
2022-08-22T09:00:57.521Z,7.60
2022-08-22T09:03:09.260Z,11.13
2022-08-22T09:05:46.428Z,9.33
2022-08-22T09:08:55.826Z,10.47
2022-08-22T09:11:09.669Z,8.90
2022-08-22T09:18:37.788Z,7.63
2022-08-22T09:21:04.687Z,7.20
2022-08-22T09:23:31.824Z,10.93
2022-08-22T09:25:39.927Z,9.13
2022-08-22T09:27:47.813Z,9.33
2022-08-22T09:29:57.242Z,7.90
2022-08-22T09:32:05.916Z,8.50
2022-08-22T09:34:23.960Z,8.80
2022-08-22T09:36:25.446Z,8.63
2022-08-22T09:43:35.219Z,9.43
2022-08-22T09:48:07.581Z,9.33
2022-08-22T09:50:13.439Z,10.10
2022-08-22T09:52:32.009Z,9.47
2022-08-22T09:54:37.194Z,9.00
2022-08-22T09:56:49.724Z,8.83
2022-08-22T09:59:00.902Z,9.43
2022-08-22T10:01:08.942Z,9.53
2022-08-22T10:03:16.919Z,10.10
2022-08-22T10:05:40.835Z,7.73
2022-08-22T10:07:51.555Z,12.77
2022-08-22T10:09:58.316Z,7.83
2022-08-22T10:12:12.919Z,9.20
2022-08-22T10:14:21.996Z,14.40
2022-08-22T10:16:30.355Z,12.40
2022-08-22T10:18:43.907Z,9.77
2022-08-22T10:20:52.532Z,10.23
2022-08-22T10:23:02.363Z,11.07
2022-08-22T10:25:13.356Z,9.40
2022-08-22T10:27:20.612Z,9.50
2022-08-22T10:29:52.180Z,8.93
2022-08-22T10:32:00.054Z,10.93
2022-08-22T10:36:30.026Z,13.63
2022-08-22T10:38:46.239Z,8.10
2022-08-22T10:43:08.208Z,8.80
2022-08-22T10:45:35.399Z,7.90
2022-08-22T10:47:32.744Z,8.70
2022-08-22T10:52:00.035Z,12.47
2022-08-22T10:54:29.064Z,12.17
2022-08-22T10:56:36.661Z,14.10
2022-08-22T11:01:01.255Z,12.30
2022-08-22T11:03:18.697Z,10.13
2022-08-22T11:05:28.448Z,11.90
2022-08-22T11:07:48.713Z,12.63
2022-08-22T11:09:54.622Z,15.33
2022-08-22T11:14:54.401Z,7.47
2022-08-22T11:17:12.049Z,9.23
2022-08-22T11:19:16.123Z,8.50
2022-08-22T11:23:47.736Z,10.50
2022-08-22T11:25:56.804Z,10.53
2022-08-22T11:31:00.608Z,9.57
2022-08-22T11:33:18.002Z,12.33
2022-08-22T11:35:25.233Z,8.23
2022-08-22T11:40:07.402Z,9.33
2022-08-22T11:42:21.911Z,8.90
2022-08-22T11:46:45.716Z,16.00
2022-08-22T11:51:14.042Z,9.67
2022-08-22T11:53:27.196Z,9.60
2022-08-22T11:57:52.872Z,16.63
2022-08-22T12:00:02.781Z,12.10
2022-08-22T12:02:11.938Z,13.67
2022-08-22T12:04:19.832Z,14.23
2022-08-22T12:06:36.206Z,15.43
2022-08-22T12:11:29.617Z,12.43
2022-08-22T12:13:39.153Z,15.93
2022-08-22T12:18:36.416Z,7.93
2022-08-22T12:23:43.708Z,10.53
2022-08-22T12:28:15.762Z,10.00
2022-08-22T12:30:28.415Z,8.93
2022-08-22T12:33:22.996Z,10.60
2022-08-22T12:35:34.932Z,8.10
2022-08-22T12:37:53.131Z,9.30
2022-08-22T12:40:15.478Z,9.07
2022-08-22T12:42:55.492Z,8.67
2022-08-22T12:47:35.642Z,9.90
2022-08-22T12:55:03.213Z,7.50
2022-08-22T12:57:23.759Z,8.67
2022-08-22T12:59:27.232Z,7.70
2022-08-22T13:01:37.047Z,8.10
2022-08-22T13:06:04.086Z,8.33
2022-08-22T13:08:13.446Z,9.90
2022-08-22T13:10:44.867Z,8.50
2022-08-22T13:12:52.321Z,8.40
2022-08-22T13:14:59.774Z,8.60
2022-08-22T13:17:10.243Z,8.77
2022-08-22T13:19:15.723Z,9.90
2022-08-22T13:21:24.521Z,9.30
2022-08-22T13:23:31.551Z,7.63
2022-08-22T13:25:44.535Z,8.03
2022-08-22T13:30:07.574Z,7.70
2022-08-22T13:32:18.913Z,10.57
2022-08-22T13:34:32.600Z,8.90
2022-08-22T13:36:43.146Z,8.23
2022-08-22T13:41:08.931Z,8.57
2022-08-22T13:43:15.559Z,9.17
2022-08-22T13:45:22.767Z,10.70
2022-08-22T13:47:31.704Z,9.97
2022-08-22T13:49:35.858Z,9.63
2022-08-22T13:51:44.704Z,10.07
2022-08-22T13:54:01.005Z,7.10
2022-08-22T13:56:06.651Z,7.03
2022-08-22T13:58:17.119Z,7.80
2022-08-22T14:00:57.955Z,8.73
2022-08-22T14:03:09.570Z,8.50
2022-08-22T14:07:35.731Z,9.43
2022-08-22T14:09:42.973Z,8.40
2022-08-22T14:11:49.895Z,7.43
2022-08-22T14:16:20.868Z,8.33
2022-08-22T14:18:31.590Z,9.43
2022-08-22T14:20:37.389Z,8.13
2022-08-22T14:22:44.608Z,8.17
2022-08-22T14:24:55.711Z,8.20
2022-08-22T14:27:05.704Z,8.43
2022-08-22T14:29:09.357Z,8.50
2022-08-22T14:31:13.951Z,7.70
2022-08-22T14:33:20.940Z,7.93
2022-08-22T14:35:37.568Z,8.03
2022-08-22T14:37:39.048Z,8.07
2022-08-22T14:42:09.957Z,7.20
2022-08-22T14:44:19.793Z,7.80
2022-08-22T14:46:28.500Z,7.47
2022-08-22T14:48:40.688Z,9.00
2022-08-22T14:50:47.517Z,8.67
2022-08-22T14:55:16.155Z,9.23
2022-08-22T14:59:42.943Z,6.90
2022-08-22T15:01:56.229Z,7.87
2022-08-22T15:06:34.636Z,8.53
2022-08-22T15:08:42.678Z,7.27
2022-08-22T15:10:49.486Z,7.33
2022-08-22T15:12:58.953Z,7.33
2022-08-22T15:15:05.105Z,6.10
2022-08-22T15:17:10.118Z,6.53
2022-08-22T15:21:41.570Z,9.43
2022-08-22T15:23:46.657Z,8.87
2022-08-22T15:25:59.652Z,9.90
2022-08-22T15:28:07.693Z,6.17
2022-08-22T15:30:18.704Z,7.37
2022-08-22T15:32:23.470Z,7.63
2022-08-22T15:34:33.230Z,8.13
2022-08-22T15:36:38.668Z,8.03
2022-08-22T15:38:47.884Z,6.70
2022-08-22T15:40:49.505Z,8.70
2022-08-22T15:42:54.097Z,7.40
2022-08-22T15:44:59.356Z,12.40
2022-08-22T15:47:23.840Z,9.27
2022-08-22T15:51:44.713Z,9.67
2022-08-22T15:54:02.913Z,8.40
2022-08-22T15:56:36.089Z,10.30
2022-08-22T15:58:48.824Z,8.00
2022-08-22T16:00:54.014Z,8.43
2022-08-22T16:03:02.544Z,9.73
2022-08-22T16:07:43.288Z,8.13
2022-08-22T16:09:50.282Z,10.33
2022-08-22T16:11:55.674Z,8.77
2022-08-22T16:14:18.161Z,10.70
2022-08-22T16:17:08.807Z,7.20
2022-08-22T16:19:19.624Z,6.70
2022-08-22T16:21:59.717Z,8.03
2022-08-22T16:24:34.180Z,8.23
2022-08-22T16:26:42.335Z,8.60
2022-08-22T16:29:00.757Z,9.87
2022-08-22T16:31:01.696Z,9.53
2022-08-22T16:33:06.970Z,9.33
2022-08-22T16:35:14.131Z,9.13
2022-08-22T16:40:15.031Z,11.23
2022-08-22T16:42:25.889Z,10.43
2022-08-22T16:44:43.506Z,11.30
2022-08-22T16:46:48.969Z,12.17
2022-08-22T16:48:59.176Z,10.37
2022-08-22T16:51:10.368Z,9.90
2022-08-22T16:53:55.079Z,10.63
2022-08-22T16:56:19.671Z,11.70
2022-08-22T16:59:23.071Z,10.57
2022-08-22T17:01:23.552Z,8.07
2022-08-22T17:05:51.315Z,10.47
2022-08-22T17:08:02.548Z,9.47
2022-08-22T17:10:31.056Z,8.87
2022-08-22T17:12:42.631Z,10.67
2022-08-22T17:17:14.344Z,8.73
2022-08-22T17:21:59.372Z,12.00
2022-08-22T17:26:31.486Z,7.50
2022-08-22T17:28:40.020Z,11.97
2022-08-22T17:30:48.668Z,13.67
2022-08-22T17:33:06.929Z,10.67
2022-08-22T17:35:23.104Z,8.23
2022-08-22T17:40:28.943Z,7.87
2022-08-22T17:42:44.785Z,8.20
2022-08-22T17:47:10.994Z,20.80
2022-08-22T17:51:42.518Z,28.07
2022-08-22T17:53:50.551Z,18.57
2022-08-22T17:55:59.733Z,17.40
2022-08-22T18:00:29.956Z,16.17
2022-08-22T18:02:38.692Z,16.27
2022-08-22T18:04:47.613Z,13.47
2022-08-22T18:09:13.959Z,14.00
2022-08-22T18:11:21.864Z,15.43
2022-08-22T18:13:36.492Z,9.83
2022-08-22T18:15:45.120Z,13.23
2022-08-22T18:20:08.255Z,13.40
2022-08-22T18:22:15.523Z,15.20
2022-08-22T18:24:22.683Z,12.10
2022-08-22T18:26:31.092Z,11.37
2022-08-22T18:28:41.109Z,14.47
2022-08-22T18:33:16.732Z,19.67
2022-08-22T18:35:25.526Z,14.53
2022-08-22T18:37:44.136Z,11.73
2022-08-22T18:39:52.081Z,9.37
2022-08-22T18:44:20.004Z,9.77
2022-08-22T18:46:43.336Z,9.43
2022-08-22T18:49:13.677Z,8.43
2022-08-22T18:50:52.055Z,8.20
2022-08-22T18:52:55.817Z,8.57
2022-08-22T18:55:28.193Z,8.60
2022-08-22T18:57:47.214Z,8.57
2022-08-22T19:02:34.104Z,8.70
2022-08-22T19:04:48.030Z,9.00
2022-08-22T19:07:16.125Z,8.10
2022-08-22T19:12:08.918Z,9.40
2022-08-22T19:14:29.181Z,10.00
2022-08-22T19:19:18.959Z,12.53
2022-08-22T19:21:46.149Z,8.77
2022-08-22T19:23:52.283Z,10.93
2022-08-22T19:26:32.888Z,12.37
2022-08-22T19:28:37.457Z,12.23
2022-08-22T19:30:46.064Z,9.73
2022-08-22T19:35:21.925Z,10.23
2022-08-22T19:37:32.905Z,9.47
2022-08-22T19:39:54.793Z,9.20
2022-08-22T19:41:59.036Z,9.63
2022-08-22T19:46:22.848Z,10.20
2022-08-22T19:48:29.861Z,9.23
2022-08-22T19:53:13.181Z,11.33
2022-08-22T19:55:22.124Z,10.57
2022-08-22T19:59:51.160Z,9.33
2022-08-22T20:04:47.793Z,10.60
2022-08-22T20:06:56.892Z,10.03
2022-08-22T20:09:10.400Z,9.40
2022-08-22T20:13:36.814Z,9.83
2022-08-22T20:19:00.507Z,9.13
2022-08-22T20:20:59.117Z,10.10
2022-08-22T20:23:06.955Z,10.13
2022-08-22T20:25:17.132Z,10.17
2022-08-22T20:27:24.311Z,10.00
2022-08-22T20:29:30.971Z,11.97
2022-08-22T20:31:36.359Z,11.57
2022-08-22T20:33:42.677Z,11.20
2022-08-22T20:35:52.284Z,11.13
2022-08-22T20:38:07.491Z,11.10
2022-08-22T20:40:38.044Z,12.13
2022-08-22T20:42:26.388Z,10.53
2022-08-22T20:44:33.265Z,9.50
2022-08-22T20:46:46.279Z,9.67
2022-08-22T20:48:52.646Z,8.80
2022-08-22T20:51:04.372Z,9.30
2022-08-22T20:53:12.315Z,9.83
2022-08-22T20:55:19.660Z,11.57
2022-08-22T20:57:23.247Z,9.97
2022-08-22T20:59:31.769Z,9.43
2022-08-22T21:01:38.049Z,21.60
2022-08-22T21:03:45.320Z,10.13
2022-08-22T21:05:49.002Z,9.57
2022-08-22T21:08:05.148Z,11.83
2022-08-22T21:10:31.351Z,10.70
2022-08-22T21:14:51.088Z,9.83
2022-08-22T21:16:54.717Z,9.30
2022-08-22T21:19:00.770Z,10.10
2022-08-22T21:21:17.086Z,9.60
2022-08-22T21:23:16.940Z,10.33
2022-08-22T21:25:21.152Z,9.73
2022-08-22T21:27:28.732Z,9.40
2022-08-22T21:29:34.114Z,10.20
2022-08-22T21:31:42.876Z,9.40
2022-08-22T21:33:49.496Z,9.13
2022-08-22T21:35:59.179Z,8.80
2022-08-22T21:38:03.039Z,9.00
2022-08-22T21:40:14.755Z,8.83
2022-08-22T21:42:23.107Z,9.00
2022-08-22T21:46:45.019Z,10.23
2022-08-22T21:49:01.152Z,10.90
2022-08-22T21:51:29.651Z,9.80
2022-08-22T21:53:33.176Z,9.37
2022-08-22T21:55:42.307Z,8.97
2022-08-22T21:57:45.919Z,9.10
2022-08-22T21:59:59.001Z,9.93
2022-08-22T22:02:01.012Z,9.60
2022-08-22T22:04:04.968Z,9.80
2022-08-22T22:06:08.549Z,9.30
2022-08-22T22:08:12.200Z,9.93
2022-08-22T22:10:18.441Z,9.80
2022-08-22T22:12:22.758Z,9.87
2022-08-22T22:14:26.394Z,9.30
2022-08-22T22:16:30.947Z,9.53
2022-08-22T22:18:36.477Z,10.00
2022-08-22T22:20:40.871Z,9.70
2022-08-22T22:22:46.114Z,9.80
2022-08-22T22:24:50.015Z,11.43
2022-08-22T22:26:53.988Z,9.50
2022-08-22T22:28:58.531Z,9.10
2022-08-22T22:31:03.038Z,9.50
2022-08-22T22:33:06.761Z,9.90
2022-08-22T22:35:10.741Z,9.37
2022-08-22T22:37:16.468Z,8.97
2022-08-22T22:39:20.132Z,10.13
2022-08-22T22:41:25.043Z,9.37
2022-08-22T22:43:28.736Z,9.47
2022-08-22T22:45:32.299Z,8.97
2022-08-22T22:47:36.178Z,9.80
2022-08-22T22:49:39.931Z,9.53
2022-08-22T22:51:43.453Z,9.03
2022-08-22T22:53:47.631Z,9.23
2022-08-22T22:55:59.968Z,8.57
2022-08-22T22:57:59.261Z,9.03
2022-08-22T23:00:29.208Z,10.53
2022-08-22T23:02:49.012Z,8.80
2022-08-22T23:04:57.361Z,9.23
2022-08-22T23:07:01.322Z,9.10
2022-08-22T23:09:04.872Z,9.17
2022-08-22T23:11:13.501Z,9.10
2022-08-22T23:13:17.500Z,8.60
2022-08-22T23:15:21.546Z,8.90
2022-08-22T23:17:25.644Z,9.53
2022-08-22T23:19:29.716Z,9.20
2022-08-22T23:21:34.502Z,8.73
2022-08-22T23:23:39.400Z,9.13
2022-08-22T23:25:44.236Z,9.27
2022-08-22T23:27:52.570Z,8.93
2022-08-22T23:29:55.338Z,9.20
2022-08-22T23:32:02.159Z,8.57
2022-08-22T23:34:09.794Z,8.33
2022-08-22T23:36:16.330Z,9.13
2022-08-22T23:38:21.274Z,9.23
2022-08-22T23:40:27.067Z,9.47
2022-08-22T23:42:32.206Z,9.17
2022-08-22T23:44:37.608Z,8.77
2022-08-22T23:46:42.107Z,8.60
2022-08-22T23:48:45.980Z,9.33
2022-08-22T23:50:49.564Z,8.97
2022-08-22T23:52:53.202Z,9.20
2022-08-22T23:54:56.668Z,8.50
2022-08-22T23:57:03.876Z,8.47
2022-08-22T23:59:12.475Z,8.47
